Flight Track Log - Related Links

Times and Time Zones

All times are in EDT time to prevent confusion due to time zone crossing. See the WIG469 flight status page for this flight to view local times or setup timezone preferences in your user account.

Time Position Orientation Groundspeed Altitude Reporting Facility
EDT Latitude Longitude Course Direction KTS MPH feet Rate Location/Type
Fri 02:54:18 PM 42.9500 -71.4500 56° Northeast 136 157 800  Level KA90
Fri 02:55:48 PM 42.9833 -71.3833 56° Northeast 160 184 3,900 1,960 Climbing KA90
Fri 02:56:48 PM 43.0167 -71.3333 48° Northeast 172 198 5,700 1,579 Climbing KA90
Fri 02:57:42 PM 43.0333 -71.2833 65° Northeast 179 206 6,900 1,421 Climbing KA90
Fri 02:58:42 PM 43.0667 -71.2167 56° Northeast 179 206 8,400 1,100 Climbing KA90
Fri 02:59:42 PM 43.1000 -71.1667 48° Northeast 198 228 9,100 350 Climbing KA90
Fri 03:00:42 PM 43.1333 -71.1000 56° Northeast 216 249 9,100 -50 Level KA90
Fri 03:01:42 PM 43.1667 -71.0333 56° Northeast 220 253 9,000 -50 Descending KA90
Fri 03:02:42 PM 43.2000 -70.9500 61° Northeast 222 255 9,000  Level KA90
Fri 03:04:00 PM 43.2306 -70.8687 63° Northeast  Level FlightAware Approximate
Fri 03:11:00 PM 43.4156 -70.4423 57° Northeast  Level FlightAware Approximate
Fri 03:12:00 PM 43.4437 -70.3832 57° Northeast  Level FlightAware Approximate
Fri 03:13:00 PM 43.4719 -70.3241 57° Northeast  Level FlightAware Approximate
Fri 03:14:00 PM 43.5000 -70.2649 57° Northeast  Level FlightAware Approximate
Fri 03:15:00 PM 43.5281 -70.2057 57° Northeast  Level FlightAware Approximate
Fri 03:16:00 PM 43.5561 -70.1464 57° Northeast  Level FlightAware Approximate
Fri 03:17:00 PM 43.5842 -70.0870 57° Northeast  Level FlightAware Approximate
Fri 03:18:00 PM 43.6121 -70.0276 57° Northeast  Level FlightAware Approximate
Fri 03:19:00 PM 43.6401 -69.9681 57° Northeast  Level FlightAware Approximate
Fri 03:20:00 PM 43.6680 -69.9086 57° Northeast  Level FlightAware Approximate
Fri 03:21:00 PM 43.6959 -69.8491 57° Northeast  Level FlightAware Approximate
Fri 03:22:00 PM 43.7238 -69.7895 57° Northeast  Level FlightAware Approximate
Fri 03:23:00 PM 43.7518 -69.7298 55° Northeast  Level FlightAware Approximate
Fri 03:24:00 PM 43.7810 -69.6714 55° Northeast  Level FlightAware Approximate
Fri 03:25:00 PM 43.8102 -69.6130 55° Northeast  Level FlightAware Approximate
Fri 03:26:00 PM 43.8394 -69.5545 55° Northeast  Level FlightAware Approximate
Fri 03:27:00 PM 43.8687 -69.4960 55° Northeast  Level FlightAware Approximate
Fri 03:28:00 PM 43.8979 -69.4375 55° Northeast  Level FlightAware Approximate
Fri 03:29:00 PM 43.9200 -69.3733 65° Northeast  Level FlightAware Approximate
Fri 03:30:00 PM 43.9493 -69.3174 36° Northeast  Level FlightAware Approximate

Login

Don't have an account? Register now (free) for customized features, flight alerts, and more!